Time;durP1;ratioP1;P1;durP2;ratioP2;P2;SDS_P1;SDS_P2;PMS_P1;PMS_P2;Temp;Humidity;BMP_temperature;BMP_pressure;BME280_temperature;BME280_humidity;BME280_pressure;Samples;Min_cycle;Max_cycle;Signal;HPM_P1;HPM_P2
2023/10/06 07:07:42;;;;;;;2.05;1.60;;;;;;;;;;5302724;23;19926;-69
2023/10/06 07:10:15;;;;;;;2.28;1.50;;;;;;;;;;4973616;28;20031;-69
2023/10/06 07:12:44;;;;;;;1.90;1.40;;;;;;;;;;4973732;28;20027;-69
2023/10/06 07:15:17;;;;;;;2.00;1.70;;;;;;;;;;4973677;28;20105;-69
2023/10/06 07:17:47;;;;;;;2.17;1.70;;;;;;;;;;4973774;28;20330;-69
2023/10/06 07:20:14;;;;;;;3.05;2.15;;;;;;;;;;4973665;28;20027;-68
2023/10/06 07:22:41;;;;;;;2.47;1.60;;;;;;;;;;4956297;28;20089;-68
2023/10/06 07:25:10;;;;;;;2.17;1.65;;;;;;;;;;4973559;28;20487;-69
2023/10/06 07:27:39;;;;;;;2.20;1.63;;;;;;;;;;4974065;28;20026;-69
2023/10/06 07:30:09;;;;;;;3.75;1.70;;;;;;;;;;4973847;28;20031;-69
2023/10/06 07:32:40;;;;;;;2.88;1.70;;;;;;;;;;4973887;28;20098;-69
2023/10/06 07:35:07;;;;;;;1.52;1.30;;;;;;;;;;4973547;28;20031;-69
2023/10/06 07:37:32;;;;;;;2.28;1.60;;;;;;;;;;4973678;28;20027;-68
2023/10/06 07:40:02;;;;;;;1.92;1.65;;;;;;;;;;4973443;28;20078;-68
2023/10/06 07:42:29;;;;;;;2.03;1.63;;;;;;;;;;4973637;28;20085;-68
2023/10/06 07:44:55;;;;;;;2.55;1.98;;;;;;;;;;4973324;28;20043;-69
2023/10/06 07:47:24;;;;;;;2.17;1.67;;;;;;;;;;4973436;28;20054;-68
2023/10/06 07:49:50;;;;;;;2.53;1.60;;;;;;;;;;4973211;28;20089;-68
2023/10/06 07:52:17;;;;;;;1.65;1.55;;;;;;;;;;4973328;28;20049;-69
2023/10/06 07:54:43;;;;;;;2.35;1.60;;;;;;;;;;4973523;28;20033;-69
2023/10/06 07:57:12;;;;;;;1.92;1.60;;;;;;;;;;4955828;28;20372;-68
2023/10/06 07:59:39;;;;;;;2.53;1.70;;;;;;;;;;4973206;28;20031;-68
2023/10/06 08:02:05;;;;;;;2.42;1.60;;;;;;;;;;4973394;28;20032;-68
2023/10/06 08:04:32;;;;;;;1.67;1.58;;;;;;;;;;4973531;28;20084;-68
2023/10/06 08:07:00;;;;;;;2.50;1.60;;;;;;;;;;4973101;28;20047;-72
2023/10/06 08:09:26;;;;;;;1.98;1.67;;;;;;;;;;4973697;28;20023;-68
2023/10/06 08:11:54;;;;;;;2.22;1.80;;;;;;;;;;4973499;28;20384;-70
2023/10/06 08:14:20;;;;;;;1.77;1.50;;;;;;;;;;4973727;28;20027;-68
2023/10/06 08:16:49;;;;;;;1.98;1.70;;;;;;;;;;4973193;28;20573;-69
2023/10/06 08:19:15;;;;;;;3.67;1.70;;;;;;;;;;4973311;28;20023;-68
2023/10/06 08:21:41;;;;;;;1.80;1.70;;;;;;;;;;4973126;28;20614;-70
2023/10/06 08:24:07;;;;;;;2.00;1.65;;;;;;;;;;4972973;28;20046;-70
2023/10/06 08:26:36;;;;;;;3.47;1.65;;;;;;;;;;4973252;28;20045;-70
2023/10/06 08:29:05;;;;;;;2.25;1.70;;;;;;;;;;4973022;28;20467;-68
2023/10/06 08:31:30;;;;;;;2.30;1.60;;;;;;;;;;4973003;28;20030;-69
2023/10/06 08:34:04;;;;;;;1.83;1.73;;;;;;;;;;4973122;28;20391;-69
2023/10/06 08:36:29;;;;;;;1.90;1.70;;;;;;;;;;4974600;28;20379;-69
2023/10/06 08:38:56;;;;;;;1.70;1.60;;;;;;;;;;4976349;28;20038;-69
2023/10/06 08:41:26;;;;;;;1.90;1.63;;;;;;;;;;4976916;28;20027;-68
2023/10/06 08:43:53;;;;;;;2.53;1.83;;;;;;;;;;4979484;28;20069;-71
2023/10/06 08:46:19;;;;;;;1.60;1.50;;;;;;;;;;4979289;28;20384;-70
2023/10/06 08:48:46;;;;;;;2.00;1.73;;;;;;;;;;4976244;28;20575;-69
2023/10/06 08:51:14;;;;;;;3.50;1.90;;;;;;;;;;4976241;28;20078;-69
2023/10/06 08:53:42;;;;;;;1.90;1.65;;;;;;;;;;4976133;28;20051;-70
2023/10/06 08:56:08;;;;;;;2.50;1.73;;;;;;;;;;4976306;28;20035;-70
2023/10/06 08:58:35;;;;;;;2.92;1.48;;;;;;;;;;4976372;28;20411;-69
2023/10/06 09:01:01;;;;;;;4.43;2.05;;;;;;;;;;4976264;28;20027;-69
2023/10/06 09:03:27;;;;;;;3.42;1.60;;;;;;;;;;4975871;28;20034;-69
2023/10/06 09:05:53;;;;;;;1.60;1.33;;;;;;;;;;4976019;28;20027;-71
2023/10/06 09:08:19;;;;;;;2.13;1.80;;;;;;;;;;4975817;28;20407;-70
2023/10/06 09:10:49;;;;;;;2.00;1.80;;;;;;;;;;4975008;28;20053;-71
2023/10/06 09:13:17;;;;;;;3.53;1.60;;;;;;;;;;4974394;28;20035;-69
2023/10/06 09:15:55;;;;;;;1.97;1.70;;;;;;;;;;4974195;28;20062;-70
2023/10/06 09:18:21;;;;;;;2.75;1.83;;;;;;;;;;4974926;28;20102;-70
2023/10/06 09:20:49;;;;;;;2.55;1.42;;;;;;;;;;4974283;28;20380;-72
2023/10/06 09:23:36;;;;;;;2.88;2.10;;;;;;;;;;4974308;28;20080;-72
2023/10/06 09:26:04;;;;;;;9.07;3.08;;;;;;;;;;4973435;28;20494;-72
2023/10/06 09:28:33;;;;;;;4.90;3.95;;;;;;;;;;4973554;28;20106;-72
2023/10/06 09:31:01;;;;;;;2.10;1.85;;;;;;;;;;4973697;28;20081;-72
2023/10/06 09:33:37;;;;;;;3.72;2.22;;;;;;;;;;4973306;28;20030;-73
2023/10/06 09:36:17;;;;;;;3.63;2.50;;;;;;;;;;4973487;28;20027;-72
2023/10/06 09:38:44;;;;;;;3.47;1.98;;;;;;;;;;4974120;28;20027;-72
2023/10/06 09:41:11;;;;;;;4.68;2.95;;;;;;;;;;4974083;28;20134;-72
2023/10/06 09:43:40;;;;;;;3.35;2.80;;;;;;;;;;4973716;28;20027;-72
2023/10/06 09:46:11;;;;;;;3.20;2.45;;;;;;;;;;4974010;28;20502;-72
2023/10/06 09:48:39;;;;;;;4.18;2.10;;;;;;;;;;4972875;28;20075;-72
2023/10/06 09:51:06;;;;;;;3.30;2.30;;;;;;;;;;4974042;28;20432;-73
2023/10/06 09:53:38;;;;;;;5.10;2.17;;;;;;;;;;4974050;28;20514;-72
2023/10/06 09:56:06;;;;;;;2.50;1.90;;;;;;;;;;4973654;28;20046;-73
2023/10/06 09:58:32;;;;;;;3.58;1.95;;;;;;;;;;4974180;28;20039;-73
2023/10/06 10:01:00;;;;;;;2.67;2.10;;;;;;;;;;4956595;28;20078;-72
2023/10/06 10:03:27;;;;;;;2.53;2.00;;;;;;;;;;4973356;28;20491;-72
2023/10/06 10:05:53;;;;;;;2.60;2.10;;;;;;;;;;4973535;28;20026;-73
2023/10/06 10:08:22;;;;;;;3.08;2.40;;;;;;;;;;4973503;28;20058;-73
2023/10/06 10:10:52;;;;;;;5.00;2.17;;;;;;;;;;4973248;28;20026;-72
2023/10/06 10:13:51;;;;;;;3.42;2.47;;;;;;;;;;4973386;28;20074;-72
2023/10/06 10:16:37;;;;;;;5.90;2.28;;;;;;;;;;4973414;28;20046;-72
2023/10/06 10:19:13;;;;;;;5.03;2.20;;;;;;;;;;4973268;28;20026;-72
2023/10/06 10:21:41;;;;;;;4.38;2.30;;;;;;;;;;4955744;28;20117;-72
2023/10/06 10:24:12;;;;;;;2.90;2.20;;;;;;;;;;4973232;28;20033;-72
2023/10/06 10:26:39;;;;;;;5.32;2.53;;;;;;;;;;4973385;28;20039;-73
2023/10/06 10:29:13;;;;;;;3.38;2.20;;;;;;;;;;4973318;28;20041;-72
2023/10/06 10:31:41;;;;;;;3.83;2.20;;;;;;;;;;4972792;28;20030;-72
2023/10/06 10:34:07;;;;;;;3.95;2.20;;;;;;;;;;4973115;28;20027;-73
2023/10/06 10:36:32;;;;;;;3.65;2.13;;;;;;;;;;4972777;28;20167;-72
2023/10/06 10:39:39;;;;;;;3.55;2.10;;;;;;;;;;4972882;28;20027;-72
2023/10/06 10:42:04;;;;;;;2.53;2.20;;;;;;;;;;4962744;28;20133;-72
2023/10/06 10:44:33;;;;;;;4.45;2.10;;;;;;;;;;4972860;28;20074;-73
2023/10/06 10:47:02;;;;;;;2.55;2.22;;;;;;;;;;4972699;28;20041;-72
2023/10/06 10:49:32;;;;;;;2.53;2.22;;;;;;;;;;4972872;28;20031;-73
2023/10/06 10:52:05;;;;;;;2.55;2.05;;;;;;;;;;4972870;28;20479;-72
2023/10/06 10:54:35;;;;;;;3.20;2.10;;;;;;;;;;4973098;28;20027;-72
2023/10/06 10:57:13;;;;;;;4.57;2.20;;;;;;;;;;4972887;28;20034;-72
2023/10/06 11:00:11;;;;;;;2.70;2.05;;;;;;;;;;4972308;28;20039;-74
2023/10/06 11:02:45;;;;;;;2.35;2.10;;;;;;;;;;4972728;28;20111;-72
2023/10/06 11:05:11;;;;;;;3.22;1.88;;;;;;;;;;4972266;28;20026;-73
2023/10/06 11:07:37;;;;;;;3.70;2.03;;;;;;;;;;4972297;28;20114;-72
2023/10/06 11:10:03;;;;;;;3.88;2.05;;;;;;;;;;4973112;28;20093;-72
2023/10/06 11:12:30;;;;;;;4.47;2.10;;;;;;;;;;4972249;28;20023;-73
2023/10/06 11:15:16;;;;;;;4.28;2.03;;;;;;;;;;4972534;28;20027;-72
2023/10/06 11:17:42;;;;;;;2.63;1.90;;;;;;;;;;4972570;28;20403;-72
2023/10/06 11:20:13;;;;;;;2.53;1.90;;;;;;;;;;4972341;28;20106;-73
2023/10/06 11:22:55;;;;;;;2.45;2.00;;;;;;;;;;4972422;28;20078;-73
2023/10/06 11:25:27;;;;;;;3.45;2.13;;;;;;;;;;4972660;28;20118;-72
2023/10/06 11:28:03;;;;;;;3.75;2.00;;;;;;;;;;4972375;28;20022;-72
2023/10/06 11:30:33;;;;;;;2.53;2.00;;;;;;;;;;4972427;28;20080;-72
2023/10/06 11:33:04;;;;;;;2.97;2.30;;;;;;;;;;4972112;28;20027;-73
2023/10/06 11:35:40;;;;;;;3.05;2.10;;;;;;;;;;4972416;28;20082;-73
2023/10/06 11:38:11;;;;;;;3.03;1.88;;;;;;;;;;4972343;28;20035;-71
2023/10/06 11:40:37;;;;;;;3.40;1.95;;;;;;;;;;4971979;28;20042;-72
2023/10/06 11:43:14;;;;;;;2.65;2.00;;;;;;;;;;4972100;28;20031;-72
2023/10/06 11:45:41;;;;;;;2.13;1.90;;;;;;;;;;4972249;28;20476;-74
2023/10/06 11:48:28;;;;;;;3.05;2.17;;;;;;;;;;4972129;28;20067;-73
2023/10/06 11:51:01;;;;;;;3.92;2.03;;;;;;;;;;4971941;28;20081;-73
2023/10/06 11:53:26;;;;;;;2.03;1.83;;;;;;;;;;4971971;28;20042;-72
2023/10/06 11:56:03;;;;;;;4.25;2.05;;;;;;;;;;4971825;28;20023;-74
2023/10/06 11:58:35;;;;;;;1.80;1.70;;;;;;;;;;4972079;28;20050;-74
2023/10/06 12:01:01;;;;;;;2.67;1.95;;;;;;;;;;4971806;28;20031;-71
2023/10/06 12:03:42;;;;;;;3.28;1.95;;;;;;;;;;4972343;28;20068;-72
2023/10/06 12:06:12;;;;;;;2.60;2.00;;;;;;;;;;4971729;28;20399;-73
2023/10/06 12:08:42;;;;;;;3.08;1.98;;;;;;;;;;4971863;28;20395;-72
2023/10/06 12:11:08;;;;;;;3.95;1.73;;;;;;;;;;4970826;28;20042;-73
2023/10/06 12:13:36;;;;;;;1.90;1.75;;;;;;;;;;4966641;28;20034;-75
2023/10/06 12:16:14;;;;;;;2.67;2.03;;;;;;;;;;4956163;29;20424;-74
2023/10/06 12:18:43;;;;;;;2.13;1.80;;;;;;;;;;4956225;29;20031;-75
2023/10/06 12:21:15;;;;;;;2.25;1.80;;;;;;;;;;4955851;28;20040;-75
2023/10/06 12:23:42;;;;;;;2.00;1.70;;;;;;;;;;4954962;29;20027;-74
2023/10/06 12:26:07;;;;;;;2.42;2.00;;;;;;;;;;4955178;29;20097;-73
2023/10/06 12:28:33;;;;;;;1.98;1.60;;;;;;;;;;4954416;29;20853;-73
2023/10/06 12:30:58;;;;;;;2.92;2.17;;;;;;;;;;4955007;29;20038;-72
2023/10/06 12:33:24;;;;;;;3.40;2.05;;;;;;;;;;4962228;28;20069;-71
2023/10/06 12:35:52;;;;;;;3.20;2.00;;;;;;;;;;4963296;28;20567;-74
2023/10/06 12:38:22;;;;;;;4.32;2.25;;;;;;;;;;4969070;28;20052;-73
2023/10/06 12:40:48;;;;;;;3.72;2.00;;;;;;;;;;4975545;28;20654;-74
2023/10/06 12:43:19;;;;;;;4.53;1.70;;;;;;;;;;4976182;28;20042;-71
2023/10/06 12:45:45;;;;;;;3.72;2.05;;;;;;;;;;4974889;28;20034;-71
2023/10/06 12:48:10;;;;;;;2.60;2.10;;;;;;;;;;4975537;28;20027;-71
2023/10/06 12:50:40;;;;;;;6.22;2.78;;;;;;;;;;4975136;28;20411;-73
2023/10/06 12:53:08;;;;;;;;;;;;;;;;;;4976123;28;20054;-71
2023/10/06 12:55:33;;;;;;;3.47;1.90;;;;;;;;;;4974986;28;19921;-71
2023/10/06 12:57:59;;;;;;;2.80;2.00;;;;;;;;;;4974873;28;20038;-72
2023/10/06 13:00:27;;;;;;;8.93;2.90;;;;;;;;;;4974644;28;20112;-75
2023/10/06 13:02:53;;;;;;;4.40;2.15;;;;;;;;;;4975103;28;20031;-71
2023/10/06 13:05:22;;;;;;;2.90;2.22;;;;;;;;;;4974635;28;20035;-76
2023/10/06 13:07:49;;;;;;;5.57;2.20;;;;;;;;;;4974055;28;20669;-72
2023/10/06 13:10:23;;;;;;;4.22;2.50;;;;;;;;;;4974541;28;20089;-73
2023/10/06 13:12:49;;;;;;;6.25;3.00;;;;;;;;;;4974663;28;20038;-71
2023/10/06 13:15:17;;;;;;;5.03;2.85;;;;;;;;;;4974422;28;20027;-75
2023/10/06 13:17:50;;;;;;;3.08;2.00;;;;;;;;;;4974706;28;20042;-74
2023/10/06 13:20:16;;;;;;;5.65;2.55;;;;;;;;;;4974776;28;20484;-71
2023/10/06 13:22:44;;;;;;;4.88;2.50;;;;;;;;;;4974604;28;20035;-76
2023/10/06 13:25:11;;;;;;;9.05;2.45;;;;;;;;;;4974566;28;20022;-72
2023/10/06 13:27:39;;;;;;;3.60;2.38;;;;;;;;;;4963653;28;20042;-72
2023/10/06 13:30:13;;;;;;;4.32;2.42;;;;;;;;;;4955431;28;20492;-72
2023/10/06 13:32:39;;;;;;;6.07;2.80;;;;;;;;;;4955140;29;20028;-71
2023/10/06 13:35:11;;;;;;;6.20;2.55;;;;;;;;;;4955748;29;20035;-74
2023/10/06 13:37:38;;;;;;;7.10;2.78;;;;;;;;;;4955101;29;20480;-71
2023/10/06 13:40:10;;;;;;;5.28;2.60;;;;;;;;;;4954727;28;20046;-76
2023/10/06 13:42:41;;;;;;;4.38;2.63;;;;;;;;;;4954513;29;20037;-72
2023/10/06 13:45:23;;;;;;;3.45;2.20;;;;;;;;;;4954875;29;20035;-71
2023/10/06 13:47:55;;;;;;;8.40;2.30;;;;;;;;;;4938025;29;20440;-73
2023/10/06 13:50:21;;;;;;;6.80;2.90;;;;;;;;;;4954661;29;20029;-70
2023/10/06 13:52:49;;;;;;;4.22;2.45;;;;;;;;;;4955924;29;20035;-71
2023/10/06 13:55:17;;;;;;;5.80;2.53;;;;;;;;;;4957688;29;20027;-71
2023/10/06 13:57:45;;;;;;;5.28;2.70;;;;;;;;;;4956902;29;20034;-71
2023/10/06 14:00:19;;;;;;;5.47;2.55;;;;;;;;;;4958307;28;20119;-71
2023/10/06 14:02:49;;;;;;;5.80;2.38;;;;;;;;;;4977522;28;20032;-72
2023/10/06 14:05:16;;;;;;;4.65;2.25;;;;;;;;;;4975688;28;20022;-71
2023/10/06 14:07:41;;;;;;;4.00;2.55;;;;;;;;;;4976993;28;20043;-71
2023/10/06 14:10:12;;;;;;;5.53;2.83;;;;;;;;;;4974001;28;20027;-71
2023/10/06 14:12:42;;;;;;;3.90;2.50;;;;;;;;;;4955707;29;20388;-72
2023/10/06 14:15:22;;;;;;;4.00;2.35;;;;;;;;;;4954451;29;20110;-74
2023/10/06 14:17:49;;;;;;;5.13;2.55;;;;;;;;;;4958044;29;20507;-71
2023/10/06 14:20:23;;;;;;;3.90;2.58;;;;;;;;;;4956536;29;20027;-71
2023/10/06 14:22:55;;;;;;;3.20;2.45;;;;;;;;;;4957424;29;20476;-70
2023/10/06 14:25:22;;;;;;;3.38;2.58;;;;;;;;;;4960646;29;20027;-76
2023/10/06 14:27:52;;;;;;;3.20;2.17;;;;;;;;;;4959593;29;20027;-73
2023/10/06 14:30:21;;;;;;;6.85;2.65;;;;;;;;;;4960528;29;20102;-72
2023/10/06 14:33:07;;;;;;;4.47;2.13;;;;;;;;;;4956670;29;20031;-71
2023/10/06 14:46:34;;;;;;;2.67;2.20;;;;;;;;;;4955327;29;20078;-71
2023/10/06 14:49:03;;;;;;;13.50;3.13;;;;;;;;;;4956380;29;20034;-72
2023/10/06 14:51:33;;;;;;;8.00;3.03;;;;;;;;;;4955988;28;20292;-71
2023/10/06 14:54:02;;;;;;;7.68;2.78;;;;;;;;;;4955154;29;20723;-72
2023/10/06 14:56:28;;;;;;;11.93;2.95;;;;;;;;;;4956125;29;20027;-73
2023/10/06 14:58:57;;;;;;;6.43;2.78;;;;;;;;;;4956304;29;20030;-75
2023/10/06 15:01:30;;;;;;;8.95;2.80;;;;;;;;;;4954921;29;20069;-72
2023/10/06 15:04:01;;;;;;;7.10;2.55;;;;;;;;;;4957909;29;20039;-77
2023/10/06 15:06:27;;;;;;;4.07;2.67;;;;;;;;;;4957699;29;20106;-72
2023/10/06 15:08:54;;;;;;;6.05;2.75;;;;;;;;;;4958904;28;20027;-72
2023/10/06 15:11:23;;;;;;;5.35;2.78;;;;;;;;;;4940165;29;20029;-76
2023/10/06 15:13:48;;;;;;;7.50;3.03;;;;;;;;;;4957563;28;20023;-79
2023/10/06 15:16:16;;;;;;;8.57;2.83;;;;;;;;;;4956053;29;20130;-74
2023/10/06 15:18:48;;;;;;;4.40;2.50;;;;;;;;;;4954423;29;20548;-74
2023/10/06 15:21:23;;;;;;;6.03;2.60;;;;;;;;;;4954223;29;20485;-73
2023/10/06 15:23:50;;;;;;;6.70;2.70;;;;;;;;;;4955985;29;20031;-74
2023/10/06 15:26:21;;;;;;;5.53;2.75;;;;;;;;;;4955174;29;20031;-72
2023/10/06 15:28:46;;;;;;;7.43;2.45;;;;;;;;;;4955605;29;20518;-76
2023/10/06 15:31:13;;;;;;;3.88;2.42;;;;;;;;;;4954192;29;20110;-75
2023/10/06 15:33:40;;;;;;;5.30;2.50;;;;;;;;;;4954576;29;20027;-76
2023/10/06 15:36:06;;;;;;;6.32;2.70;;;;;;;;;;4953710;28;20059;-75
2023/10/06 15:38:32;;;;;;;5.90;2.78;;;;;;;;;;4953435;29;20027;-75
2023/10/06 15:41:04;;;;;;;5.72;2.60;;;;;;;;;;4953890;29;20046;-72
2023/10/06 15:43:30;;;;;;;3.67;2.25;;;;;;;;;;4953647;28;20019;-73
2023/10/06 15:45:58;;;;;;;6.97;2.67;;;;;;;;;;4956919;28;20031;-74
2023/10/06 15:48:32;;;;;;;4.40;2.70;;;;;;;;;;4958134;29;20384;-73
2023/10/06 15:51:02;;;;;;;3.60;2.20;;;;;;;;;;4957717;29;20118;-72
2023/10/06 15:53:29;;;;;;;3.97;2.60;;;;;;;;;;4957282;29;20166;-72
2023/10/06 15:56:02;;;;;;;3.80;2.50;;;;;;;;;;4955454;29;20038;-72
2023/10/06 15:58:28;;;;;;;5.70;2.78;;;;;;;;;;4955885;29;20174;-73
2023/10/06 16:00:54;;;;;;;5.07;2.08;;;;;;;;;;4955720;29;20103;-73
2023/10/06 16:03:22;;;;;;;5.88;2.50;;;;;;;;;;4956546;29;20062;-72
2023/10/06 16:05:49;;;;;;;6.25;2.50;;;;;;;;;;4957463;28;20023;-72
2023/10/06 16:08:16;;;;;;;3.17;2.35;;;;;;;;;;4956724;29;20180;-72
2023/10/06 16:10:46;;;;;;;6.63;2.70;;;;;;;;;;4956598;28;20031;-73
2023/10/06 16:13:13;;;;;;;;;;;;;;;;;;4956947;29;20034;-72
2023/10/06 16:15:42;;;;;;;6.60;2.40;;;;;;;;;;4956219;29;20000;-72
2023/10/06 16:18:11;;;;;;;3.35;2.30;;;;;;;;;;4956903;29;20027;-72
2023/10/06 16:20:40;;;;;;;5.15;2.38;;;;;;;;;;4939070;29;20054;-74
2023/10/06 16:23:08;;;;;;;8.63;2.60;;;;;;;;;;4956349;29;20643;-73
2023/10/06 16:25:41;;;;;;;7.28;2.50;;;;;;;;;;4955700;29;20073;-73
2023/10/06 16:28:11;;;;;;;5.82;2.50;;;;;;;;;;4956044;29;20570;-73
2023/10/06 16:30:40;;;;;;;9.20;2.50;;;;;;;;;;4956052;28;20094;-73
2023/10/06 16:33:08;;;;;;;5.53;2.50;;;;;;;;;;4956036;28;20031;-73
2023/10/06 16:35:41;;;;;;;3.67;2.13;;;;;;;;;;4955949;29;20026;-72
2023/10/06 16:38:07;;;;;;;4.95;2.70;;;;;;;;;;4955743;29;20038;-73
2023/10/06 16:40:34;;;;;;;6.68;2.88;;;;;;;;;;4955716;29;20032;-73
2023/10/06 16:43:00;;;;;;;7.10;3.00;;;;;;;;;;4955528;29;20078;-73
2023/10/06 16:45:33;;;;;;;6.40;3.08;;;;;;;;;;4955794;29;20019;-73
2023/10/06 16:47:59;;;;;;;7.97;3.10;;;;;;;;;;4955796;29;20054;-73
2023/10/06 16:50:25;;;;;;;5.20;2.70;;;;;;;;;;4955632;28;20059;-73
2023/10/06 16:52:52;;;;;;;5.63;2.95;;;;;;;;;;4955455;28;20035;-73
2023/10/06 16:55:18;;;;;;;5.50;2.70;;;;;;;;;;4937946;29;20694;-73
2023/10/06 16:57:45;;;;;;;6.15;2.70;;;;;;;;;;4954759;28;20110;-73
2023/10/06 17:00:12;;;;;;;4.18;2.30;;;;;;;;;;4955596;28;20074;-73
2023/10/06 17:02:38;;;;;;;5.05;2.90;;;;;;;;;;4955175;29;20030;-72
2023/10/06 17:05:04;;;;;;;4.65;2.47;;;;;;;;;;4955440;29;20110;-72
2023/10/06 17:07:31;;;;;;;8.82;2.90;;;;;;;;;;4954996;29;20043;-72
2023/10/06 17:09:56;;;;;;;6.53;2.65;;;;;;;;;;4955593;28;20409;-72
2023/10/06 17:12:23;;;;;;;6.35;2.55;;;;;;;;;;4955141;29;20070;-72
2023/10/06 17:14:52;;;;;;;6.78;2.75;;;;;;;;;;4955742;29;20030;-73
2023/10/06 17:17:19;;;;;;;5.47;2.70;;;;;;;;;;4955355;29;20062;-72
2023/10/06 17:19:45;;;;;;;10.88;2.90;;;;;;;;;;4954855;28;20114;-74
2023/10/06 17:22:11;;;;;;;7.63;2.88;;;;;;;;;;4955252;29;20127;-73
2023/10/06 17:24:36;;;;;;;8.73;2.90;;;;;;;;;;4954804;29;20146;-73
2023/10/06 17:27:03;;;;;;;9.98;3.22;;;;;;;;;;4955088;29;20063;-73
2023/10/06 17:29:29;;;;;;;8.68;4.13;;;;;;;;;;4955342;28;20039;-74
2023/10/06 17:31:57;;;;;;;4.75;3.50;;;;;;;;;;4955150;29;20019;-73
2023/10/06 17:34:23;;;;;;;8.73;3.25;;;;;;;;;;4955482;28;20035;-73
2023/10/06 17:36:48;;;;;;;6.40;3.00;;;;;;;;;;4955370;29;20086;-74
2023/10/06 17:39:17;;;;;;;7.20;3.00;;;;;;;;;;4954901;29;20032;-73
2023/10/06 17:41:43;;;;;;;9.07;3.10;;;;;;;;;;4955515;29;20113;-71
2023/10/06 17:44:09;;;;;;;7.63;3.00;;;;;;;;;;4954465;28;20059;-71
2023/10/06 17:46:36;;;;;;;4.55;3.20;;;;;;;;;;4954516;29;20476;-73
2023/10/06 17:49:02;;;;;;;10.30;3.22;;;;;;;;;;4954544;29;20393;-71
2023/10/06 17:51:27;;;;;;;8.80;3.05;;;;;;;;;;4955185;29;20035;-77
2023/10/06 17:53:53;;;;;;;5.55;2.78;;;;;;;;;;4956680;28;20353;-72
2023/10/06 17:56:18;;;;;;;5.85;2.72;;;;;;;;;;4955904;29;20042;-76
2023/10/06 17:58:45;;;;;;;6.93;3.00;;;;;;;;;;4955460;29;20114;-75
2023/10/06 18:01:11;;;;;;;8.75;3.33;;;;;;;;;;4955128;29;20495;-72
2023/10/06 18:03:37;;;;;;;5.13;2.90;;;;;;;;;;4954383;29;20028;-73
2023/10/06 18:06:03;;;;;;;5.78;2.80;;;;;;;;;;4936736;29;20117;-72
2023/10/06 18:08:28;;;;;;;4.40;2.58;;;;;;;;;;4953060;28;20035;-73
2023/10/06 18:10:54;;;;;;;5.28;2.70;;;;;;;;;;4954116;28;20034;-72
2023/10/06 18:13:21;;;;;;;5.40;2.95;;;;;;;;;;4954223;28;20362;-73
2023/10/06 18:15:47;;;;;;;5.65;2.58;;;;;;;;;;4955176;28;20502;-72
2023/10/06 18:18:13;;;;;;;4.53;2.70;;;;;;;;;;4956841;29;20118;-73
2023/10/06 18:20:42;;;;;;;5.25;3.00;;;;;;;;;;4957787;29;20031;-78
2023/10/06 18:23:10;;;;;;;5.07;2.92;;;;;;;;;;4958151;29;20114;-77
2023/10/06 18:25:36;;;;;;;6.20;2.88;;;;;;;;;;4955077;29;20041;-72
2023/10/06 18:28:06;;;;;;;6.40;2.65;;;;;;;;;;4955044;29;20073;-74
2023/10/06 18:30:32;;;;;;;6.78;2.75;;;;;;;;;;4954428;28;20027;-75
2023/10/06 18:32:58;;;;;;;6.22;2.63;;;;;;;;;;4936879;29;20031;-71
2023/10/06 18:35:24;;;;;;;5.93;2.58;;;;;;;;;;4954471;29;20086;-71
2023/10/06 18:37:49;;;;;;;7.93;3.17;;;;;;;;;;4954887;28;20031;-72
2023/10/06 18:40:18;;;;;;;6.07;2.80;;;;;;;;;;4954574;29;20762;-73
2023/10/06 18:42:44;;;;;;;7.18;2.65;;;;;;;;;;4953656;29;20031;-73
2023/10/06 18:45:11;;;;;;;7.03;3.13;;;;;;;;;;4952793;29;20031;-73
2023/10/06 18:47:37;;;;;;;8.15;2.63;;;;;;;;;;4952740;29;20031;-73
2023/10/06 18:50:17;;;;;;;10.35;2.90;;;;;;;;;;4952615;28;20075;-72
2023/10/06 18:52:52;;;;;;;9.48;3.00;;;;;;;;;;4953948;29;20020;-77
2023/10/06 18:55:22;;;;;;;7.32;2.78;;;;;;;;;;4953598;29;20039;-72
2023/10/06 18:57:48;;;;;;;4.70;2.75;;;;;;;;;;4953763;28;20039;-72
2023/10/06 19:00:15;;;;;;;5.30;2.90;;;;;;;;;;4954440;29;20031;-74
2023/10/06 19:02:42;;;;;;;4.57;2.90;;;;;;;;;;4953755;28;20071;-72
2023/10/06 19:05:09;;;;;;;9.25;3.15;;;;;;;;;;4954637;29;20038;-73
2023/10/06 19:07:35;;;;;;;5.03;2.83;;;;;;;;;;4953354;29;20044;-73
2023/10/06 19:10:02;;;;;;;8.10;2.92;;;;;;;;;;4954108;29;20031;-73
2023/10/06 19:12:31;;;;;;;6.13;3.30;;;;;;;;;;4952828;28;20032;-72
2023/10/06 19:14:56;;;;;;;6.20;2.85;;;;;;;;;;4953629;29;20492;-72
2023/10/06 19:17:25;;;;;;;5.15;3.20;;;;;;;;;;4953153;29;20070;-72
2023/10/06 19:19:51;;;;;;;5.68;2.80;;;;;;;;;;4953364;29;20097;-72
2023/10/06 19:22:17;;;;;;;4.65;2.95;;;;;;;;;;4953567;29;20031;-74
2023/10/06 19:24:43;;;;;;;6.00;2.80;;;;;;;;;;4953034;29;20039;-72
2023/10/06 19:27:11;;;;;;;4.43;2.97;;;;;;;;;;4953604;28;20090;-72
2023/10/06 19:29:38;;;;;;;4.22;2.60;;;;;;;;;;4953798;29;20035;-72
2023/10/06 19:32:05;;;;;;;7.72;3.05;;;;;;;;;;4952691;29;20539;-72
2023/10/06 19:34:30;;;;;;;5.88;2.80;;;;;;;;;;4952996;28;20023;-73
2023/10/06 19:36:56;;;;;;;6.30;2.95;;;;;;;;;;4953067;29;20472;-72
2023/10/06 19:39:26;;;;;;;8.07;2.80;;;;;;;;;;4952947;29;20031;-72
2023/10/06 19:41:52;;;;;;;6.95;2.95;;;;;;;;;;4952747;29;20484;-72
2023/10/06 19:44:17;;;;;;;5.20;2.72;;;;;;;;;;4952979;29;20042;-73
2023/10/06 19:46:43;;;;;;;7.05;2.78;;;;;;;;;;4952817;28;20027;-72
2023/10/06 19:49:10;;;;;;;6.90;2.78;;;;;;;;;;4952982;29;20435;-73
2023/10/06 19:51:36;;;;;;;5.00;2.92;;;;;;;;;;4952958;29;20423;-73
2023/10/06 19:54:01;;;;;;;5.63;2.92;;;;;;;;;;4952892;29;20370;-73
2023/10/06 19:56:27;;;;;;;5.07;2.63;;;;;;;;;;4953059;28;20444;-72
2023/10/06 19:58:53;;;;;;;5.45;2.90;;;;;;;;;;4952713;28;20031;-72
2023/10/06 20:01:23;;;;;;;8.23;2.70;;;;;;;;;;4952667;29;20101;-72
2023/10/06 20:03:52;;;;;;;7.15;3.17;;;;;;;;;;4952925;29;20110;-71
2023/10/06 20:06:19;;;;;;;9.52;4.30;;;;;;;;;;4956235;29;20050;-75
2023/10/06 20:08:46;;;;;;;8.02;4.43;;;;;;;;;;4959810;29;20031;-74
2023/10/06 20:11:14;;;;;;;5.85;3.90;;;;;;;;;;4960946;29;20023;-74
2023/10/06 20:13:40;;;;;;;8.30;4.13;;;;;;;;;;4960909;28;20031;-74
2023/10/06 20:16:13;;;;;;;10.45;3.78;;;;;;;;;;4937319;29;20090;-73
2023/10/06 20:18:42;;;;;;;7.00;3.80;;;;;;;;;;4965929;29;20023;-74
2023/10/06 20:21:11;;;;;;;8.40;3.42;;;;;;;;;;4957675;28;20038;-74
2023/10/06 20:23:40;;;;;;;13.05;3.95;;;;;;;;;;4944634;29;20495;-74
2023/10/06 20:26:06;;;;;;;5.97;3.50;;;;;;;;;;4959736;29;20499;-74
2023/10/06 20:28:32;;;;;;;6.68;3.58;;;;;;;;;;4962991;29;20019;-74
2023/10/06 20:30:58;;;;;;;6.78;3.65;;;;;;;;;;4957023;28;20027;-74
2023/10/06 20:33:24;;;;;;;6.18;3.25;;;;;;;;;;4960304;28;20035;-73
2023/10/06 20:35:50;;;;;;;6.13;3.50;;;;;;;;;;4966432;28;20054;-72
2023/10/06 20:38:16;;;;;;;8.90;3.65;;;;;;;;;;4967489;28;20106;-72
2023/10/06 20:40:44;;;;;;;7.95;3.38;;;;;;;;;;4947645;29;20039;-74
2023/10/06 20:43:10;;;;;;;12.38;3.60;;;;;;;;;;4966312;29;20047;-73
2023/10/06 20:45:36;;;;;;;7.50;3.55;;;;;;;;;;4966819;29;20023;-72
2023/10/06 20:48:05;;;;;;;7.63;3.70;;;;;;;;;;4968570;28;20038;-73
2023/10/06 20:50:35;;;;;;;5.88;3.42;;;;;;;;;;4967485;28;20483;-72
2023/10/06 20:53:01;;;;;;;;;;;;;;;;;;4963362;29;20465;-72
2023/10/06 20:55:27;;;;;;;6.53;3.50;;;;;;;;;;4963877;29;19949;-72
2023/10/06 20:57:52;;;;;;;5.70;3.17;;;;;;;;;;4966060;29;20024;-72
2023/10/06 21:00:21;;;;;;;5.45;3.17;;;;;;;;;;4962337;28;20051;-72
2023/10/06 21:02:47;;;;;;;8.27;3.45;;;;;;;;;;4967516;28;20042;-73
2023/10/06 21:05:15;;;;;;;6.10;3.17;;;;;;;;;;4934609;29;20027;-71
2023/10/06 21:07:42;;;;;;;5.70;3.33;;;;;;;;;;4966548;28;20055;-73
2023/10/06 21:10:10;;;;;;;8.02;3.70;;;;;;;;;;4961584;29;20046;-75
2023/10/06 21:12:37;;;;;;;5.97;3.67;;;;;;;;;;4963802;28;20042;-72
2023/10/06 21:15:04;;;;;;;6.97;3.20;;;;;;;;;;4965311;28;20027;-72
2023/10/06 21:17:30;;;;;;;7.20;3.15;;;;;;;;;;4959539;28;20028;-73
2023/10/06 21:19:56;;;;;;;7.65;3.30;;;;;;;;;;4957446;29;20034;-72
2023/10/06 21:22:22;;;;;;;7.00;3.30;;;;;;;;;;4958493;28;20027;-72
2023/10/06 21:24:49;;;;;;;8.45;3.42;;;;;;;;;;4958399;28;20567;-73
2023/10/06 21:27:16;;;;;;;5.15;3.25;;;;;;;;;;4957371;28;20046;-73
2023/10/06 21:29:41;;;;;;;7.07;3.78;;;;;;;;;;4957854;28;20106;-72
2023/10/06 21:32:09;;;;;;;4.40;3.13;;;;;;;;;;4959826;28;20066;-72
2023/10/06 21:34:35;;;;;;;6.55;3.40;;;;;;;;;;4956919;29;20035;-72
2023/10/06 21:37:01;;;;;;;6.78;3.08;;;;;;;;;;4958821;29;20031;-72
2023/10/06 21:39:27;;;;;;;5.60;3.03;;;;;;;;;;4957848;28;20038;-73
2023/10/06 21:41:53;;;;;;;5.22;3.10;;;;;;;;;;4958352;29;20579;-74
2023/10/06 21:44:19;;;;;;;6.90;3.10;;;;;;;;;;4961424;28;20063;-72
2023/10/06 21:46:44;;;;;;;3.85;3.05;;;;;;;;;;4956225;29;20083;-73
2023/10/06 21:49:13;;;;;;;6.50;3.17;;;;;;;;;;4956148;28;20023;-72
2023/10/06 21:51:40;;;;;;;7.05;3.70;;;;;;;;;;4957367;29;20023;-72
2023/10/06 21:54:05;;;;;;;5.72;3.42;;;;;;;;;;4959633;29;20472;-75
2023/10/06 21:56:32;;;;;;;4.63;3.05;;;;;;;;;;4959488;28;20059;-74
2023/10/06 21:58:57;;;;;;;9.10;3.38;;;;;;;;;;4956173;29;20034;-74
2023/10/06 22:01:23;;;;;;;4.30;3.03;;;;;;;;;;4960809;28;20031;-73
2023/10/06 22:03:50;;;;;;;7.40;3.40;;;;;;;;;;4965341;28;20031;-74
2023/10/06 22:06:19;;;;;;;9.82;3.83;;;;;;;;;;4965243;28;20029;-73
2023/10/06 22:08:46;;;;;;;7.50;2.90;;;;;;;;;;4962002;29;20019;-74